sensor_id;sensor_type;location;lat;lon;timestamp;P1;durP1;ratioP1;P2;durP2;ratioP2
34930;SDS011;21134;49.646;8.560;2023-04-19T00:02:12;5.77;;;1.93;;
34930;SDS011;21134;49.646;8.560;2023-04-19T00:04:38;5.33;;;2.37;;
34930;SDS011;21134;49.646;8.560;2023-04-19T00:07:05;5.10;;;2.23;;
34930;SDS011;21134;49.646;8.560;2023-04-19T00:09:32;2.40;;;1.67;;
34930;SDS011;21134;49.646;8.560;2023-04-19T00:11:59;3.27;;;2.10;;
34930;SDS011;21134;49.646;8.560;2023-04-19T00:14:26;1.80;;;1.47;;
34930;SDS011;21134;49.646;8.560;2023-04-19T00:16:52;4.47;;;1.90;;
34930;SDS011;21134;49.646;8.560;2023-04-19T00:19:19;3.00;;;1.57;;
34930;SDS011;21134;49.646;8.560;2023-04-19T00:21:46;2.90;;;1.73;;
34930;SDS011;21134;49.646;8.560;2023-04-19T00:24:12;6.27;;;2.70;;
34930;SDS011;21134;49.646;8.560;2023-04-19T00:26:40;4.53;;;1.83;;
34930;SDS011;21134;49.646;8.560;2023-04-19T00:29:07;2.93;;;1.83;;
34930;SDS011;21134;49.646;8.560;2023-04-19T00:31:33;7.03;;;2.00;;
34930;SDS011;21134;49.646;8.560;2023-04-19T00:34:00;5.77;;;2.07;;
34930;SDS011;21134;49.646;8.560;2023-04-19T00:36:27;3.23;;;1.57;;
34930;SDS011;21134;49.646;8.560;2023-04-19T00:38:53;3.73;;;1.47;;
34930;SDS011;21134;49.646;8.560;2023-04-19T00:41:20;3.30;;;1.67;;
34930;SDS011;21134;49.646;8.560;2023-04-19T00:43:47;3.37;;;2.10;;
34930;SDS011;21134;49.646;8.560;2023-04-19T00:46:14;2.03;;;1.27;;
34930;SDS011;21134;49.646;8.560;2023-04-19T00:48:40;5.10;;;1.17;;
34930;SDS011;21134;49.646;8.560;2023-04-19T00:51:07;11.80;;;1.77;;
34930;SDS011;21134;49.646;8.560;2023-04-19T00:53:35;3.60;;;1.33;;
34930;SDS011;21134;49.646;8.560;2023-04-19T00:56:02;6.60;;;1.67;;
34930;SDS011;21134;49.646;8.560;2023-04-19T00:58:30;3.53;;;1.70;;
34930;SDS011;21134;49.646;8.560;2023-04-19T01:00:59;8.63;;;1.60;;
34930;SDS011;21134;49.646;8.560;2023-04-19T01:03:25;6.03;;;1.53;;
34930;SDS011;21134;49.646;8.560;2023-04-19T01:05:53;1.67;;;1.57;;
34930;SDS011;21134;49.646;8.560;2023-04-19T01:08:20;3.67;;;1.37;;
34930;SDS011;21134;49.646;8.560;2023-04-19T01:10:46;2.73;;;1.33;;
34930;SDS011;21134;49.646;8.560;2023-04-19T01:13:13;1.63;;;1.40;;
34930;SDS011;21134;49.646;8.560;2023-04-19T01:15:39;7.37;;;1.83;;
34930;SDS011;21134;49.646;8.560;2023-04-19T01:18:07;2.90;;;1.27;;
34930;SDS011;21134;49.646;8.560;2023-04-19T01:20:34;2.90;;;1.37;;
34930;SDS011;21134;49.646;8.560;2023-04-19T01:23:01;3.00;;;1.40;;
34930;SDS011;21134;49.646;8.560;2023-04-19T01:25:28;6.13;;;1.23;;
34930;SDS011;21134;49.646;8.560;2023-04-19T01:27:55;3.87;;;1.17;;
34930;SDS011;21134;49.646;8.560;2023-04-19T01:30:21;1.77;;;1.57;;
34930;SDS011;21134;49.646;8.560;2023-04-19T01:32:48;2.60;;;1.40;;
34930;SDS011;21134;49.646;8.560;2023-04-19T01:35:14;3.07;;;2.03;;
34930;SDS011;21134;49.646;8.560;2023-04-19T01:37:41;4.77;;;2.13;;
34930;SDS011;21134;49.646;8.560;2023-04-19T01:40:09;2.53;;;2.07;;
34930;SDS011;21134;49.646;8.560;2023-04-19T01:42:36;3.00;;;1.20;;
34930;SDS011;21134;49.646;8.560;2023-04-19T01:45:03;7.50;;;1.23;;
34930;SDS011;21134;49.646;8.560;2023-04-19T01:47:30;3.53;;;1.87;;
34930;SDS011;21134;49.646;8.560;2023-04-19T01:49:57;1.77;;;1.63;;
34930;SDS011;21134;49.646;8.560;2023-04-19T01:52:23;3.40;;;1.27;;
34930;SDS011;21134;49.646;8.560;2023-04-19T01:54:50;2.37;;;1.50;;
34930;SDS011;21134;49.646;8.560;2023-04-19T01:57:17;5.63;;;1.10;;
34930;SDS011;21134;49.646;8.560;2023-04-19T01:59:44;7.67;;;2.03;;
34930;SDS011;21134;49.646;8.560;2023-04-19T02:02:10;2.20;;;1.47;;
34930;SDS011;21134;49.646;8.560;2023-04-19T02:04:37;1.87;;;1.27;;
34930;SDS011;21134;49.646;8.560;2023-04-19T02:07:03;1.77;;;1.07;;
34930;SDS011;21134;49.646;8.560;2023-04-19T02:09:30;1.80;;;1.07;;
34930;SDS011;21134;49.646;8.560;2023-04-19T02:11:59;2.27;;;2.00;;
34930;SDS011;21134;49.646;8.560;2023-04-19T02:14:27;6.37;;;2.90;;
34930;SDS011;21134;49.646;8.560;2023-04-19T02:16:54;4.37;;;2.13;;
34930;SDS011;21134;49.646;8.560;2023-04-19T02:19:20;4.57;;;1.93;;
34930;SDS011;21134;49.646;8.560;2023-04-19T02:21:47;1.53;;;0.77;;
34930;SDS011;21134;49.646;8.560;2023-04-19T02:24:13;1.53;;;1.00;;
34930;SDS011;21134;49.646;8.560;2023-04-19T02:26:40;2.70;;;1.67;;
34930;SDS011;21134;49.646;8.560;2023-04-19T02:29:06;2.63;;;1.50;;
34930;SDS011;21134;49.646;8.560;2023-04-19T02:31:34;2.13;;;1.40;;
34930;SDS011;21134;49.646;8.560;2023-04-19T02:34:01;1.80;;;1.30;;
34930;SDS011;21134;49.646;8.560;2023-04-19T02:36:27;2.60;;;1.53;;
34930;SDS011;21134;49.646;8.560;2023-04-19T02:38:54;1.10;;;0.83;;
34930;SDS011;21134;49.646;8.560;2023-04-19T02:41:23;3.50;;;2.13;;
34930;SDS011;21134;49.646;8.560;2023-04-19T02:43:50;3.60;;;1.57;;
34930;SDS011;21134;49.646;8.560;2023-04-19T02:46:16;2.50;;;1.43;;
34930;SDS011;21134;49.646;8.560;2023-04-19T02:48:44;2.93;;;1.50;;
34930;SDS011;21134;49.646;8.560;2023-04-19T02:51:13;1.27;;;1.00;;
34930;SDS011;21134;49.646;8.560;2023-04-19T02:53:40;1.80;;;1.70;;
34930;SDS011;21134;49.646;8.560;2023-04-19T02:56:07;2.50;;;1.53;;
34930;SDS011;21134;49.646;8.560;2023-04-19T02:58:34;7.73;;;2.33;;
34930;SDS011;21134;49.646;8.560;2023-04-19T03:01:01;1.57;;;1.37;;
34930;SDS011;21134;49.646;8.560;2023-04-19T03:03:27;3.47;;;1.93;;
34930;SDS011;21134;49.646;8.560;2023-04-19T03:05:55;2.93;;;1.50;;
34930;SDS011;21134;49.646;8.560;2023-04-19T03:08:22;7.17;;;2.20;;
34930;SDS011;21134;49.646;8.560;2023-04-19T03:10:49;1.60;;;1.03;;
34930;SDS011;21134;49.646;8.560;2023-04-19T03:13:15;1.17;;;1.07;;
34930;SDS011;21134;49.646;8.560;2023-04-19T03:15:41;4.27;;;2.03;;
34930;SDS011;21134;49.646;8.560;2023-04-19T03:18:08;0.90;;;0.90;;
34930;SDS011;21134;49.646;8.560;2023-04-19T03:20:34;3.07;;;1.70;;
34930;SDS011;21134;49.646;8.560;2023-04-19T03:23:02;1.90;;;1.50;;
34930;SDS011;21134;49.646;8.560;2023-04-19T03:25:29;2.07;;;1.40;;
34930;SDS011;21134;49.646;8.560;2023-04-19T03:27:56;2.87;;;2.00;;
34930;SDS011;21134;49.646;8.560;2023-04-19T03:30:22;2.97;;;1.70;;
34930;SDS011;21134;49.646;8.560;2023-04-19T03:32:49;4.17;;;1.40;;
34930;SDS011;21134;49.646;8.560;2023-04-19T03:35:16;3.80;;;1.83;;
34930;SDS011;21134;49.646;8.560;2023-04-19T03:37:42;6.13;;;2.00;;
34930;SDS011;21134;49.646;8.560;2023-04-19T03:40:10;3.90;;;2.50;;
34930;SDS011;21134;49.646;8.560;2023-04-19T03:42:37;2.90;;;1.07;;
34930;SDS011;21134;49.646;8.560;2023-04-19T03:45:04;5.50;;;2.17;;
34930;SDS011;21134;49.646;8.560;2023-04-19T03:47:31;7.47;;;2.07;;
34930;SDS011;21134;49.646;8.560;2023-04-19T03:49:57;3.90;;;2.10;;
34930;SDS011;21134;49.646;8.560;2023-04-19T03:52:24;2.30;;;1.30;;
34930;SDS011;21134;49.646;8.560;2023-04-19T03:54:51;1.83;;;1.50;;
34930;SDS011;21134;49.646;8.560;2023-04-19T03:57:19;2.97;;;1.57;;
34930;SDS011;21134;49.646;8.560;2023-04-19T03:59:46;5.60;;;2.50;;
34930;SDS011;21134;49.646;8.560;2023-04-19T04:02:12;1.93;;;1.57;;
34930;SDS011;21134;49.646;8.560;2023-04-19T04:04:39;3.00;;;1.57;;
34930;SDS011;21134;49.646;8.560;2023-04-19T04:07:05;2.80;;;1.83;;
34930;SDS011;21134;49.646;8.560;2023-04-19T04:09:32;6.60;;;1.90;;
34930;SDS011;21134;49.646;8.560;2023-04-19T04:11:58;5.87;;;1.93;;
34930;SDS011;21134;49.646;8.560;2023-04-19T04:14:26;2.10;;;1.40;;
34930;SDS011;21134;49.646;8.560;2023-04-19T04:16:53;2.03;;;1.20;;
34930;SDS011;21134;49.646;8.560;2023-04-19T04:19:19;4.60;;;1.93;;
34930;SDS011;21134;49.646;8.560;2023-04-19T04:21:46;3.50;;;1.77;;
34930;SDS011;21134;49.646;8.560;2023-04-19T04:24:13;2.43;;;1.70;;
34930;SDS011;21134;49.646;8.560;2023-04-19T04:26:39;5.47;;;2.20;;
34930;SDS011;21134;49.646;8.560;2023-04-19T04:29:06;3.27;;;1.50;;
34930;SDS011;21134;49.646;8.560;2023-04-19T04:31:34;6.00;;;1.87;;
34930;SDS011;21134;49.646;8.560;2023-04-19T04:34:00;1.27;;;0.90;;
34930;SDS011;21134;49.646;8.560;2023-04-19T04:36:27;1.60;;;1.50;;
34930;SDS011;21134;49.646;8.560;2023-04-19T04:38:53;2.00;;;1.33;;
34930;SDS011;21134;49.646;8.560;2023-04-19T04:41:21;3.47;;;2.47;;
34930;SDS011;21134;49.646;8.560;2023-04-19T04:43:47;2.87;;;1.63;;
34930;SDS011;21134;49.646;8.560;2023-04-19T04:46:15;3.00;;;2.07;;
34930;SDS011;21134;49.646;8.560;2023-04-19T04:48:43;0.93;;;0.87;;
34930;SDS011;21134;49.646;8.560;2023-04-19T04:51:09;3.07;;;1.67;;
34930;SDS011;21134;49.646;8.560;2023-04-19T04:53:36;3.53;;;1.83;;
34930;SDS011;21134;49.646;8.560;2023-04-19T04:56:03;4.73;;;1.70;;
34930;SDS011;21134;49.646;8.560;2023-04-19T04:58:29;4.20;;;1.40;;
34930;SDS011;21134;49.646;8.560;2023-04-19T05:00:56;4.07;;;1.93;;
34930;SDS011;21134;49.646;8.560;2023-04-19T05:03:22;2.67;;;1.93;;
34930;SDS011;21134;49.646;8.560;2023-04-19T05:05:50;4.53;;;1.37;;
34930;SDS011;21134;49.646;8.560;2023-04-19T05:08:16;6.00;;;2.10;;
34930;SDS011;21134;49.646;8.560;2023-04-19T05:10:43;2.93;;;1.67;;
34930;SDS011;21134;49.646;8.560;2023-04-19T05:13:09;5.47;;;2.50;;
34930;SDS011;21134;49.646;8.560;2023-04-19T05:15:36;5.13;;;2.23;;
34930;SDS011;21134;49.646;8.560;2023-04-19T05:18:03;2.53;;;1.80;;
34930;SDS011;21134;49.646;8.560;2023-04-19T05:20:29;1.73;;;1.40;;
34930;SDS011;21134;49.646;8.560;2023-04-19T05:22:59;3.63;;;1.70;;
34930;SDS011;21134;49.646;8.560;2023-04-19T05:25:27;3.23;;;2.00;;
34930;SDS011;21134;49.646;8.560;2023-04-19T05:27:54;3.83;;;2.60;;
34930;SDS011;21134;49.646;8.560;2023-04-19T05:30:21;4.00;;;2.37;;
34930;SDS011;21134;49.646;8.560;2023-04-19T05:32:48;4.23;;;2.30;;
34930;SDS011;21134;49.646;8.560;2023-04-19T05:35:16;2.53;;;2.00;;
34930;SDS011;21134;49.646;8.560;2023-04-19T05:37:43;5.40;;;2.53;;
34930;SDS011;21134;49.646;8.560;2023-04-19T05:40:11;3.33;;;2.20;;
34930;SDS011;21134;49.646;8.560;2023-04-19T05:42:37;3.00;;;1.80;;
34930;SDS011;21134;49.646;8.560;2023-04-19T05:45:04;3.70;;;1.80;;
34930;SDS011;21134;49.646;8.560;2023-04-19T05:47:31;11.63;;;2.70;;
34930;SDS011;21134;49.646;8.560;2023-04-19T05:49:58;2.70;;;1.87;;
34930;SDS011;21134;49.646;8.560;2023-04-19T05:52:24;4.67;;;2.23;;
34930;SDS011;21134;49.646;8.560;2023-04-19T05:54:51;4.63;;;2.17;;
34930;SDS011;21134;49.646;8.560;2023-04-19T05:57:19;7.43;;;2.60;;
34930;SDS011;21134;49.646;8.560;2023-04-19T05:59:45;3.27;;;1.93;;
34930;SDS011;21134;49.646;8.560;2023-04-19T06:02:12;6.83;;;2.40;;
34930;SDS011;21134;49.646;8.560;2023-04-19T06:04:38;4.50;;;1.67;;
34930;SDS011;21134;49.646;8.560;2023-04-19T06:07:05;2.43;;;1.70;;
34930;SDS011;21134;49.646;8.560;2023-04-19T06:09:32;9.67;;;3.50;;
34930;SDS011;21134;49.646;8.560;2023-04-19T06:11:58;3.47;;;1.83;;
34930;SDS011;21134;49.646;8.560;2023-04-19T06:14:27;3.60;;;2.20;;
34930;SDS011;21134;49.646;8.560;2023-04-19T06:16:54;6.63;;;1.57;;
34930;SDS011;21134;49.646;8.560;2023-04-19T06:19:21;4.03;;;1.93;;
34930;SDS011;21134;49.646;8.560;2023-04-19T06:21:47;2.80;;;1.63;;
34930;SDS011;21134;49.646;8.560;2023-04-19T06:24:14;3.13;;;2.30;;
34930;SDS011;21134;49.646;8.560;2023-04-19T06:26:40;5.73;;;2.60;;
34930;SDS011;21134;49.646;8.560;2023-04-19T06:29:07;2.87;;;2.27;;
34930;SDS011;21134;49.646;8.560;2023-04-19T06:31:35;3.33;;;2.10;;
34930;SDS011;21134;49.646;8.560;2023-04-19T06:34:01;3.33;;;2.00;;
34930;SDS011;21134;49.646;8.560;2023-04-19T06:36:28;4.90;;;1.80;;
34930;SDS011;21134;49.646;8.560;2023-04-19T06:38:54;4.20;;;2.23;;
34930;SDS011;21134;49.646;8.560;2023-04-19T06:41:21;6.83;;;2.53;;
34930;SDS011;21134;49.646;8.560;2023-04-19T06:43:48;9.57;;;2.90;;
34930;SDS011;21134;49.646;8.560;2023-04-19T06:46:14;5.90;;;2.27;;
34930;SDS011;21134;49.646;8.560;2023-04-19T06:48:42;3.37;;;1.83;;
34930;SDS011;21134;49.646;8.560;2023-04-19T06:51:08;5.60;;;3.03;;
34930;SDS011;21134;49.646;8.560;2023-04-19T06:53:35;6.57;;;3.00;;
34930;SDS011;21134;49.646;8.560;2023-04-19T06:56:02;4.83;;;2.27;;
34930;SDS011;21134;49.646;8.560;2023-04-19T06:58:29;3.13;;;2.07;;
34930;SDS011;21134;49.646;8.560;2023-04-19T07:00:57;5.57;;;2.53;;
34930;SDS011;21134;49.646;8.560;2023-04-19T07:03:24;4.60;;;2.60;;
34930;SDS011;21134;49.646;8.560;2023-04-19T07:05:52;3.13;;;1.93;;
34930;SDS011;21134;49.646;8.560;2023-04-19T07:08:20;9.60;;;3.10;;
34930;SDS011;21134;49.646;8.560;2023-04-19T07:10:47;5.00;;;2.90;;
34930;SDS011;21134;49.646;8.560;2023-04-19T07:13:13;6.10;;;2.07;;
34930;SDS011;21134;49.646;8.560;2023-04-19T07:15:40;3.23;;;2.13;;
34930;SDS011;21134;49.646;8.560;2023-04-19T07:18:06;7.30;;;2.53;;
34930;SDS011;21134;49.646;8.560;2023-04-19T07:20:34;6.63;;;2.80;;
34930;SDS011;21134;49.646;8.560;2023-04-19T07:23:02;10.00;;;3.77;;
34930;SDS011;21134;49.646;8.560;2023-04-19T07:25:28;4.57;;;3.07;;
34930;SDS011;21134;49.646;8.560;2023-04-19T07:27:55;8.90;;;3.03;;
34930;SDS011;21134;49.646;8.560;2023-04-19T07:30:21;5.50;;;2.37;;
34930;SDS011;21134;49.646;8.560;2023-04-19T07:32:48;5.60;;;2.77;;
34930;SDS011;21134;49.646;8.560;2023-04-19T07:35:17;7.13;;;3.93;;
34930;SDS011;21134;49.646;8.560;2023-04-19T07:37:44;5.33;;;3.07;;
34930;SDS011;21134;49.646;8.560;2023-04-19T07:40:12;6.27;;;2.67;;
34930;SDS011;21134;49.646;8.560;2023-04-19T07:42:39;5.57;;;2.73;;
34930;SDS011;21134;49.646;8.560;2023-04-19T07:45:06;9.07;;;3.10;;
34930;SDS011;21134;49.646;8.560;2023-04-19T07:47:33;4.17;;;2.17;;
34930;SDS011;21134;49.646;8.560;2023-04-19T07:49:59;5.50;;;3.27;;
34930;SDS011;21134;49.646;8.560;2023-04-19T07:52:25;6.63;;;3.90;;
34930;SDS011;21134;49.646;8.560;2023-04-19T07:54:52;4.73;;;2.40;;
34930;SDS011;21134;49.646;8.560;2023-04-19T07:57:20;4.93;;;2.53;;
34930;SDS011;21134;49.646;8.560;2023-04-19T07:59:46;7.80;;;2.57;;
34930;SDS011;21134;49.646;8.560;2023-04-19T08:02:13;4.43;;;2.83;;
34930;SDS011;21134;49.646;8.560;2023-04-19T08:04:41;8.47;;;3.30;;
34930;SDS011;21134;49.646;8.560;2023-04-19T08:07:07;10.13;;;3.10;;
34930;SDS011;21134;49.646;8.560;2023-04-19T08:09:34;3.70;;;2.53;;
34930;SDS011;21134;49.646;8.560;2023-04-19T08:12:01;4.60;;;2.80;;
34930;SDS011;21134;49.646;8.560;2023-04-19T08:14:30;5.63;;;2.90;;
34930;SDS011;21134;49.646;8.560;2023-04-19T08:16:56;4.33;;;1.93;;
34930;SDS011;21134;49.646;8.560;2023-04-19T08:19:23;7.20;;;2.77;;
34930;SDS011;21134;49.646;8.560;2023-04-19T08:21:49;8.43;;;3.50;;
34930;SDS011;21134;49.646;8.560;2023-04-19T08:24:16;4.27;;;2.43;;
34930;SDS011;21134;49.646;8.560;2023-04-19T08:26:42;3.90;;;2.40;;
34930;SDS011;21134;49.646;8.560;2023-04-19T08:29:17;5.07;;;2.67;;
34930;SDS011;21134;49.646;8.560;2023-04-19T08:31:45;4.60;;;3.03;;
34930;SDS011;21134;49.646;8.560;2023-04-19T08:34:11;12.00;;;3.57;;
34930;SDS011;21134;49.646;8.560;2023-04-19T08:36:38;6.07;;;3.67;;
34930;SDS011;21134;49.646;8.560;2023-04-19T08:39:05;3.70;;;2.30;;
34930;SDS011;21134;49.646;8.560;2023-04-19T08:41:31;4.87;;;3.17;;
34930;SDS011;21134;49.646;8.560;2023-04-19T08:43:58;9.93;;;2.57;;
34930;SDS011;21134;49.646;8.560;2023-04-19T08:46:25;7.40;;;3.73;;
34930;SDS011;21134;49.646;8.560;2023-04-19T08:48:52;7.87;;;3.47;;
34930;SDS011;21134;49.646;8.560;2023-04-19T08:51:20;4.40;;;2.63;;
34930;SDS011;21134;49.646;8.560;2023-04-19T08:53:47;11.37;;;3.30;;
34930;SDS011;21134;49.646;8.560;2023-04-19T08:56:14;5.37;;;2.70;;
34930;SDS011;21134;49.646;8.560;2023-04-19T08:58:41;14.33;;;3.10;;
34930;SDS011;21134;49.646;8.560;2023-04-19T09:01:07;13.03;;;3.73;;
34930;SDS011;21134;49.646;8.560;2023-04-19T09:03:34;5.23;;;3.00;;
34930;SDS011;21134;49.646;8.560;2023-04-19T09:06:02;4.23;;;2.63;;
34930;SDS011;21134;49.646;8.560;2023-04-19T09:08:29;2.80;;;2.10;;
34930;SDS011;21134;49.646;8.560;2023-04-19T09:10:57;7.97;;;2.00;;
34930;SDS011;21134;49.646;8.560;2023-04-19T09:13:25;3.50;;;1.97;;
34930;SDS011;21134;49.646;8.560;2023-04-19T09:15:52;4.47;;;2.40;;
34930;SDS011;21134;49.646;8.560;2023-04-19T09:18:21;2.93;;;1.87;;
34930;SDS011;21134;49.646;8.560;2023-04-19T09:20:49;4.47;;;2.87;;
34930;SDS011;21134;49.646;8.560;2023-04-19T09:23:22;8.20;;;2.57;;
34930;SDS011;21134;49.646;8.560;2023-04-19T09:25:51;4.40;;;2.53;;
34930;SDS011;21134;49.646;8.560;2023-04-19T09:28:19;3.10;;;1.90;;
34930;SDS011;21134;49.646;8.560;2023-04-19T09:30:46;2.33;;;1.70;;
34930;SDS011;21134;49.646;8.560;2023-04-19T09:33:13;5.47;;;2.40;;
34930;SDS011;21134;49.646;8.560;2023-04-19T09:35:55;4.67;;;2.30;;
34930;SDS011;21134;49.646;8.560;2023-04-19T09:38:25;4.77;;;2.83;;
34930;SDS011;21134;49.646;8.560;2023-04-19T09:40:52;4.00;;;2.93;;
34930;SDS011;21134;49.646;8.560;2023-04-19T09:43:30;3.93;;;1.50;;
34930;SDS011;21134;49.646;8.560;2023-04-19T09:45:57;4.00;;;2.40;;
34930;SDS011;21134;49.646;8.560;2023-04-19T09:48:23;4.93;;;2.57;;
34930;SDS011;21134;49.646;8.560;2023-04-19T09:50:51;2.80;;;1.90;;
34930;SDS011;21134;49.646;8.560;2023-04-19T09:53:18;5.63;;;2.43;;
34930;SDS011;21134;49.646;8.560;2023-04-19T09:55:47;14.63;;;2.80;;
34930;SDS011;21134;49.646;8.560;2023-04-19T09:58:13;3.03;;;2.03;;
34930;SDS011;21134;49.646;8.560;2023-04-19T10:00:40;2.53;;;2.10;;
34930;SDS011;21134;49.646;8.560;2023-04-19T10:03:08;3.50;;;2.17;;
34930;SDS011;21134;49.646;8.560;2023-04-19T10:05:36;4.87;;;2.00;;
34930;SDS011;21134;49.646;8.560;2023-04-19T10:08:05;2.97;;;1.97;;
34930;SDS011;21134;49.646;8.560;2023-04-19T10:10:32;4.43;;;2.03;;
34930;SDS011;21134;49.646;8.560;2023-04-19T10:13:01;7.17;;;1.63;;
34930;SDS011;21134;49.646;8.560;2023-04-19T10:15:29;4.70;;;2.00;;
34930;SDS011;21134;49.646;8.560;2023-04-19T10:17:57;4.50;;;1.90;;
34930;SDS011;21134;49.646;8.560;2023-04-19T10:20:25;2.77;;;2.03;;
34930;SDS011;21134;49.646;8.560;2023-04-19T10:22:58;2.40;;;1.73;;
34930;SDS011;21134;49.646;8.560;2023-04-19T10:25:27;7.60;;;2.70;;
34930;SDS011;21134;49.646;8.560;2023-04-19T10:27:54;4.93;;;2.50;;
34930;SDS011;21134;49.646;8.560;2023-04-19T10:30:24;2.30;;;1.53;;
34930;SDS011;21134;49.646;8.560;2023-04-19T10:32:52;3.20;;;1.73;;
34930;SDS011;21134;49.646;8.560;2023-04-19T10:35:21;3.73;;;1.87;;
34930;SDS011;21134;49.646;8.560;2023-04-19T10:38:06;4.73;;;1.73;;
34930;SDS011;21134;49.646;8.560;2023-04-19T10:40:52;2.23;;;1.33;;
34930;SDS011;21134;49.646;8.560;2023-04-19T10:43:20;2.70;;;1.43;;
34930;SDS011;21134;49.646;8.560;2023-04-19T10:45:48;2.00;;;1.43;;
34930;SDS011;21134;49.646;8.560;2023-04-19T10:51:02;2.33;;;1.60;;
34930;SDS011;21134;49.646;8.560;2023-04-19T10:53:43;9.40;;;1.63;;
34930;SDS011;21134;49.646;8.560;2023-04-19T10:56:15;2.67;;;1.87;;
34930;SDS011;21134;49.646;8.560;2023-04-19T11:01:41;2.33;;;1.57;;
34930;SDS011;21134;49.646;8.560;2023-04-19T11:04:09;2.17;;;1.20;;
34930;SDS011;21134;49.646;8.560;2023-04-19T11:06:37;3.97;;;1.90;;
34930;SDS011;21134;49.646;8.560;2023-04-19T11:09:04;2.53;;;1.40;;
34930;SDS011;21134;49.646;8.560;2023-04-19T11:11:32;1.27;;;1.17;;
34930;SDS011;21134;49.646;8.560;2023-04-19T11:13:59;1.87;;;1.10;;
34930;SDS011;21134;49.646;8.560;2023-04-19T11:16:28;1.70;;;1.40;;
34930;SDS011;21134;49.646;8.560;2023-04-19T11:18:56;3.20;;;0.90;;
34930;SDS011;21134;49.646;8.560;2023-04-19T11:21:22;3.17;;;1.60;;
34930;SDS011;21134;49.646;8.560;2023-04-19T11:23:55;0.93;;;0.77;;
34930;SDS011;21134;49.646;8.560;2023-04-19T11:26:31;1.47;;;0.80;;
34930;SDS011;21134;49.646;8.560;2023-04-19T11:28:57;1.73;;;1.30;;
34930;SDS011;21134;49.646;8.560;2023-04-19T11:31:24;2.57;;;1.40;;
34930;SDS011;21134;49.646;8.560;2023-04-19T11:33:50;8.93;;;1.57;;
34930;SDS011;21134;49.646;8.560;2023-04-19T11:36:18;2.53;;;1.52;;
34930;SDS011;21134;49.646;8.560;2023-04-19T11:38:46;2.77;;;1.40;;
34930;SDS011;21134;49.646;8.560;2023-04-19T11:41:13;1.70;;;1.30;;
34930;SDS011;21134;49.646;8.560;2023-04-19T11:43:40;3.10;;;1.33;;
34930;SDS011;21134;49.646;8.560;2023-04-19T11:46:09;0.90;;;0.87;;
34930;SDS011;21134;49.646;8.560;2023-04-19T11:48:37;0.77;;;0.77;;
34930;SDS011;21134;49.646;8.560;2023-04-19T11:51:04;2.60;;;1.90;;
34930;SDS011;21134;49.646;8.560;2023-04-19T11:53:32;2.80;;;1.70;;
34930;SDS011;21134;49.646;8.560;2023-04-19T11:56:02;1.60;;;1.50;;
34930;SDS011;21134;49.646;8.560;2023-04-19T11:58:30;2.63;;;1.17;;
34930;SDS011;21134;49.646;8.560;2023-04-19T12:01:03;1.83;;;1.70;;
34930;SDS011;21134;49.646;8.560;2023-04-19T12:03:31;2.20;;;1.73;;
34930;SDS011;21134;49.646;8.560;2023-04-19T12:05:58;4.53;;;1.60;;
34930;SDS011;21134;49.646;8.560;2023-04-19T12:08:31;2.37;;;1.40;;
34930;SDS011;21134;49.646;8.560;2023-04-19T12:11:00;2.60;;;1.40;;
34930;SDS011;21134;49.646;8.560;2023-04-19T12:13:28;3.67;;;1.63;;
34930;SDS011;21134;49.646;8.560;2023-04-19T12:15:55;1.83;;;1.60;;
34930;SDS011;21134;49.646;8.560;2023-04-19T12:18:22;1.40;;;1.30;;
34930;SDS011;21134;49.646;8.560;2023-04-19T12:20:49;2.67;;;1.60;;
34930;SDS011;21134;49.646;8.560;2023-04-19T12:23:17;4.17;;;1.77;;
34930;SDS011;21134;49.646;8.560;2023-04-19T12:25:46;1.70;;;1.07;;
34930;SDS011;21134;49.646;8.560;2023-04-19T12:28:14;2.07;;;1.40;;
34930;SDS011;21134;49.646;8.560;2023-04-19T12:30:41;1.47;;;1.20;;
34930;SDS011;21134;49.646;8.560;2023-04-19T12:33:08;2.07;;;1.03;;
34930;SDS011;21134;49.646;8.560;2023-04-19T12:35:35;1.57;;;1.03;;
34930;SDS011;21134;49.646;8.560;2023-04-19T12:38:02;2.03;;;1.13;;
34930;SDS011;21134;49.646;8.560;2023-04-19T12:40:29;1.83;;;1.45;;
34930;SDS011;21134;49.646;8.560;2023-04-19T12:42:57;1.23;;;0.75;;
34930;SDS011;21134;49.646;8.560;2023-04-19T12:45:23;1.88;;;1.27;;
34930;SDS011;21134;49.646;8.560;2023-04-19T12:47:50;1.25;;;1.10;;
34930;SDS011;21134;49.646;8.560;2023-04-19T12:50:17;2.63;;;1.48;;
34930;SDS011;21134;49.646;8.560;2023-04-19T12:52:43;3.42;;;1.23;;
34930;SDS011;21134;49.646;8.560;2023-04-19T12:55:11;1.95;;;1.08;;
34930;SDS011;21134;49.646;8.560;2023-04-19T12:57:37;2.00;;;1.77;;
34930;SDS011;21134;49.646;8.560;2023-04-19T13:00:06;1.75;;;1.40;;
34930;SDS011;21134;49.646;8.560;2023-04-19T13:02:34;2.22;;;1.35;;
34930;SDS011;21134;49.646;8.560;2023-04-19T13:05:01;1.63;;;1.10;;
34930;SDS011;21134;49.646;8.560;2023-04-19T13:07:29;1.85;;;1.05;;
34930;SDS011;21134;49.646;8.560;2023-04-19T13:09:55;3.47;;;1.65;;
34930;SDS011;21134;49.646;8.560;2023-04-19T13:12:22;2.25;;;1.38;;
34930;SDS011;21134;49.646;8.560;2023-04-19T13:14:48;1.90;;;1.17;;
34930;SDS011;21134;49.646;8.560;2023-04-19T13:17:17;1.65;;;1.23;;
34930;SDS011;21134;49.646;8.560;2023-04-19T13:19:44;5.18;;;2.13;;
34930;SDS011;21134;49.646;8.560;2023-04-19T13:22:11;5.40;;;1.05;;
34930;SDS011;21134;49.646;8.560;2023-04-19T13:24:37;4.85;;;1.75;;
34930;SDS011;21134;49.646;8.560;2023-04-19T13:27:04;1.80;;;1.00;;
34930;SDS011;21134;49.646;8.560;2023-04-19T13:29:30;2.72;;;1.33;;
34930;SDS011;21134;49.646;8.560;2023-04-19T13:31:57;2.60;;;1.00;;
34930;SDS011;21134;49.646;8.560;2023-04-19T13:34:25;2.33;;;1.40;;
34930;SDS011;21134;49.646;8.560;2023-04-19T13:36:51;1.37;;;0.73;;
34930;SDS011;21134;49.646;8.560;2023-04-19T13:39:18;0.80;;;0.80;;
34930;SDS011;21134;49.646;8.560;2023-04-19T13:41:44;1.30;;;0.73;;
34930;SDS011;21134;49.646;8.560;2023-04-19T13:44:11;0.80;;;0.80;;
34930;SDS011;21134;49.646;8.560;2023-04-19T13:46:37;1.75;;;1.10;;
34930;SDS011;21134;49.646;8.560;2023-04-19T13:49:04;1.05;;;0.95;;
34930;SDS011;21134;49.646;8.560;2023-04-19T13:51:32;0.88;;;0.80;;
34930;SDS011;21134;49.646;8.560;2023-04-19T13:53:58;0.93;;;0.50;;
34930;SDS011;21134;49.646;8.560;2023-04-19T13:56:25;0.60;;;0.50;;
34930;SDS011;21134;49.646;8.560;2023-04-19T13:58:51;1.40;;;0.93;;
34930;SDS011;21134;49.646;8.560;2023-04-19T14:01:18;3.03;;;1.20;;
34930;SDS011;21134;49.646;8.560;2023-04-19T14:03:44;1.40;;;0.55;;
34930;SDS011;21134;49.646;8.560;2023-04-19T14:06:11;2.23;;;1.17;;
34930;SDS011;21134;49.646;8.560;2023-04-19T14:08:39;0.65;;;0.55;;
34930;SDS011;21134;49.646;8.560;2023-04-19T14:11:05;0.70;;;0.70;;
34930;SDS011;21134;49.646;8.560;2023-04-19T14:13:32;2.05;;;0.60;;
34930;SDS011;21134;49.646;8.560;2023-04-19T14:15:58;1.13;;;0.70;;
34930;SDS011;21134;49.646;8.560;2023-04-19T14:18:25;1.20;;;0.80;;
34930;SDS011;21134;49.646;8.560;2023-04-19T14:20:51;0.70;;;0.70;;
34930;SDS011;21134;49.646;8.560;2023-04-19T14:23:18;0.70;;;0.70;;
34930;SDS011;21134;49.646;8.560;2023-04-19T14:25:46;2.95;;;1.63;;
34930;SDS011;21134;49.646;8.560;2023-04-19T14:28:12;1.15;;;1.08;;
34930;SDS011;21134;49.646;8.560;2023-04-19T14:30:39;0.30;;;0.30;;
34930;SDS011;21134;49.646;8.560;2023-04-19T14:33:05;1.02;;;0.80;;
34930;SDS011;21134;49.646;8.560;2023-04-19T14:35:32;0.65;;;0.47;;
34930;SDS011;21134;49.646;8.560;2023-04-19T14:37:58;0.60;;;0.60;;
34930;SDS011;21134;49.646;8.560;2023-04-19T14:40:25;7.00;;;0.85;;
34930;SDS011;21134;49.646;8.560;2023-04-19T14:42:53;0.77;;;0.70;;
34930;SDS011;21134;49.646;8.560;2023-04-19T14:45:19;0.65;;;0.57;;
34930;SDS011;21134;49.646;8.560;2023-04-19T14:47:46;2.05;;;1.30;;
34930;SDS011;21134;49.646;8.560;2023-04-19T14:50:12;3.58;;;0.80;;
34930;SDS011;21134;49.646;8.560;2023-04-19T14:52:38;0.90;;;0.40;;
34930;SDS011;21134;49.646;8.560;2023-04-19T14:55:06;0.50;;;0.50;;